Accueil
METAR-TAF:

METAR-TAF

Aéroports :

Aéroport de Savannakhet

Savannakhet, Laos

latitude: 16-33-24N, longitude: 104-45-34E, altitude: 155 m

Observation

Le bulletin a été fait il y a 57 minutes, à 01:00 UTC
Vent 2 kt de nord-est
Température 21°C
Humidité 69%
Pression 1022 hPa
Visibilité: 5000 m
Nuages épars à une hauteur de 4000 ft
brume

METAR: VLSK 220100Z 04002KT 5000 BR SCT040 21/15 Q1022 NOSIG

Heure: 08:57 (01:57 UTC)

Prévision

Le bulletin a été fait il y a 2 heures et 57 minutes, à 23:00 UTC
Prévision valable du 22 à 00 UTC au 22 à 24 UTC
Vent 6 kt de nord-est
Visibilité: 8000 m
Nuages épars à une hauteur de 2000 ft
Quelques nuages à une hauteur de 10000 ft

TAF: VLSK 212300Z 2200/2224 04006KT 8000 SCT020 FEW100

Observations et prévisions météorologiques de plus de 4000 aéroports (messages METAR et TAF).

Les stations disponibles sont représentées par des disques jaunes et rouges sur la carte.

Passer la souris dessus pour voir le nom de la station.

Cliquer dessus pour voir les observations et prévisions météorologiques.

Pour changer de carte: cliquez sur les boutons verts avec une croix noire pour zoomer, sur le bouton vert avec un tiret pour effectuer un zoom arrière, ou sur les flèches vertes pour les cartes adjacentes.


METAR-TAF: